sensor_id;sensor_type;location;lat;lon;timestamp;temperature;humidity
60234;DHT22;49514;43.538;-5.708;2022-07-23T00:01:37;20.50;99.90
60234;DHT22;49514;43.538;-5.708;2022-07-23T00:04:04;20.50;99.90
60234;DHT22;49514;43.538;-5.708;2022-07-23T00:06:31;20.50;99.90
60234;DHT22;49514;43.538;-5.708;2022-07-23T00:08:58;20.50;99.90
60234;DHT22;49514;43.538;-5.708;2022-07-23T00:11:24;20.50;99.90
60234;DHT22;49514;43.538;-5.708;2022-07-23T00:13:50;20.50;99.90
60234;DHT22;49514;43.538;-5.708;2022-07-23T00:16:17;20.50;99.90
60234;DHT22;49514;43.538;-5.708;2022-07-23T00:18:44;20.50;99.90
60234;DHT22;49514;43.538;-5.708;2022-07-23T00:21:10;20.50;99.90
60234;DHT22;49514;43.538;-5.708;2022-07-23T00:23:36;20.40;99.90
60234;DHT22;49514;43.538;-5.708;2022-07-23T00:26:03;20.40;99.90
60234;DHT22;49514;43.538;-5.708;2022-07-23T00:28:30;20.30;99.90
60234;DHT22;49514;43.538;-5.708;2022-07-23T00:30:56;20.40;99.90
60234;DHT22;49514;43.538;-5.708;2022-07-23T00:33:22;20.40;99.90
60234;DHT22;49514;43.538;-5.708;2022-07-23T00:35:49;20.40;99.90
60234;DHT22;49514;43.538;-5.708;2022-07-23T00:38:15;20.30;99.90
60234;DHT22;49514;43.538;-5.708;2022-07-23T00:40:41;20.30;99.90
60234;DHT22;49514;43.538;-5.708;2022-07-23T00:43:08;20.30;99.90
60234;DHT22;49514;43.538;-5.708;2022-07-23T00:45:34;20.30;99.90
60234;DHT22;49514;43.538;-5.708;2022-07-23T00:48:01;20.20;99.90
60234;DHT22;49514;43.538;-5.708;2022-07-23T00:50:28;20.20;99.90
60234;DHT22;49514;43.538;-5.708;2022-07-23T00:52:54;20.20;99.90
60234;DHT22;49514;43.538;-5.708;2022-07-23T00:55:21;20.10;99.90
60234;DHT22;49514;43.538;-5.708;2022-07-23T00:57:48;20.10;99.90
60234;DHT22;49514;43.538;-5.708;2022-07-23T01:00:14;20.10;99.90
60234;DHT22;49514;43.538;-5.708;2022-07-23T01:02:41;20.00;99.90
60234;DHT22;49514;43.538;-5.708;2022-07-23T01:05:08;20.00;99.90
60234;DHT22;49514;43.538;-5.708;2022-07-23T01:07:35;20.00;99.90
60234;DHT22;49514;43.538;-5.708;2022-07-23T01:10:02;20.00;99.90
60234;DHT22;49514;43.538;-5.708;2022-07-23T01:12:29;19.90;99.90
60234;DHT22;49514;43.538;-5.708;2022-07-23T01:14:56;19.90;99.90
60234;DHT22;49514;43.538;-5.708;2022-07-23T01:17:22;19.80;99.90
60234;DHT22;49514;43.538;-5.708;2022-07-23T01:19:49;19.80;99.90
60234;DHT22;49514;43.538;-5.708;2022-07-23T01:22:18;19.70;99.90
60234;DHT22;49514;43.538;-5.708;2022-07-23T01:24:45;19.70;99.90
60234;DHT22;49514;43.538;-5.708;2022-07-23T01:27:11;19.70;99.90
60234;DHT22;49514;43.538;-5.708;2022-07-23T01:29:39;19.60;99.90
60234;DHT22;49514;43.538;-5.708;2022-07-23T01:32:14;19.50;99.90
60234;DHT22;49514;43.538;-5.708;2022-07-23T01:34:41;19.50;99.90
60234;DHT22;49514;43.538;-5.708;2022-07-23T01:37:07;19.50;99.90
60234;DHT22;49514;43.538;-5.708;2022-07-23T01:39:34;19.50;99.90
60234;DHT22;49514;43.538;-5.708;2022-07-23T01:42:01;19.40;99.90
60234;DHT22;49514;43.538;-5.708;2022-07-23T01:44:28;19.30;99.90
60234;DHT22;49514;43.538;-5.708;2022-07-23T01:46:56;19.30;99.90
60234;DHT22;49514;43.538;-5.708;2022-07-23T01:49:22;19.20;99.90
60234;DHT22;49514;43.538;-5.708;2022-07-23T01:52:09;19.10;99.90
60234;DHT22;49514;43.538;-5.708;2022-07-23T01:54:46;19.00;99.90
60234;DHT22;49514;43.538;-5.708;2022-07-23T01:57:12;18.90;99.90
60234;DHT22;49514;43.538;-5.708;2022-07-23T01:59:39;18.90;99.90
60234;DHT22;49514;43.538;-5.708;2022-07-23T02:02:06;18.80;99.90
60234;DHT22;49514;43.538;-5.708;2022-07-23T02:04:32;18.80;99.90
60234;DHT22;49514;43.538;-5.708;2022-07-23T02:07:03;18.70;99.90
60234;DHT22;49514;43.538;-5.708;2022-07-23T02:09:29;18.70;99.90
60234;DHT22;49514;43.538;-5.708;2022-07-23T02:11:56;18.70;99.90
60234;DHT22;49514;43.538;-5.708;2022-07-23T02:14:22;18.60;99.90
60234;DHT22;49514;43.538;-5.708;2022-07-23T02:16:48;18.60;99.90
60234;DHT22;49514;43.538;-5.708;2022-07-23T02:19:15;18.50;99.90
60234;DHT22;49514;43.538;-5.708;2022-07-23T02:21:41;18.50;99.90
60234;DHT22;49514;43.538;-5.708;2022-07-23T02:24:08;18.50;99.90
60234;DHT22;49514;43.538;-5.708;2022-07-23T02:26:34;18.40;99.90
60234;DHT22;49514;43.538;-5.708;2022-07-23T02:29:04;18.40;99.90
60234;DHT22;49514;43.538;-5.708;2022-07-23T02:31:30;18.30;99.90
60234;DHT22;49514;43.538;-5.708;2022-07-23T02:33:57;18.30;99.90
60234;DHT22;49514;43.538;-5.708;2022-07-23T02:36:24;18.30;99.90
60234;DHT22;49514;43.538;-5.708;2022-07-23T02:38:52;18.20;99.90
60234;DHT22;49514;43.538;-5.708;2022-07-23T02:41:18;18.10;99.90
60234;DHT22;49514;43.538;-5.708;2022-07-23T02:43:45;18.10;99.90
60234;DHT22;49514;43.538;-5.708;2022-07-23T02:46:13;18.10;99.90
60234;DHT22;49514;43.538;-5.708;2022-07-23T02:48:40;18.10;99.90
60234;DHT22;49514;43.538;-5.708;2022-07-23T02:51:06;18.10;99.90
60234;DHT22;49514;43.538;-5.708;2022-07-23T02:53:38;18.10;99.90
60234;DHT22;49514;43.538;-5.708;2022-07-23T02:56:04;18.20;99.90
60234;DHT22;49514;43.538;-5.708;2022-07-23T02:58:31;18.20;99.90
60234;DHT22;49514;43.538;-5.708;2022-07-23T03:00:57;18.20;99.90
60234;DHT22;49514;43.538;-5.708;2022-07-23T03:03:25;18.30;99.90
60234;DHT22;49514;43.538;-5.708;2022-07-23T03:05:51;18.30;99.90
60234;DHT22;49514;43.538;-5.708;2022-07-23T03:08:18;18.30;99.90
60234;DHT22;49514;43.538;-5.708;2022-07-23T03:10:49;18.30;99.90
60234;DHT22;49514;43.538;-5.708;2022-07-23T03:13:16;18.30;99.90
60234;DHT22;49514;43.538;-5.708;2022-07-23T03:15:43;18.30;99.90
60234;DHT22;49514;43.538;-5.708;2022-07-23T03:18:09;18.30;99.90
60234;DHT22;49514;43.538;-5.708;2022-07-23T03:20:36;18.30;99.90
60234;DHT22;49514;43.538;-5.708;2022-07-23T03:23:02;18.30;99.90
60234;DHT22;49514;43.538;-5.708;2022-07-23T03:25:30;18.40;99.90
60234;DHT22;49514;43.538;-5.708;2022-07-23T03:27:56;18.30;99.90
60234;DHT22;49514;43.538;-5.708;2022-07-23T03:30:23;18.40;99.90
60234;DHT22;49514;43.538;-5.708;2022-07-23T03:32:49;18.30;99.90
60234;DHT22;49514;43.538;-5.708;2022-07-23T03:35:15;18.30;99.90
60234;DHT22;49514;43.538;-5.708;2022-07-23T03:37:50;18.30;99.90
60234;DHT22;49514;43.538;-5.708;2022-07-23T03:40:16;18.30;99.90
60234;DHT22;49514;43.538;-5.708;2022-07-23T03:42:43;18.30;99.90
60234;DHT22;49514;43.538;-5.708;2022-07-23T03:45:12;18.20;99.90
60234;DHT22;49514;43.538;-5.708;2022-07-23T03:47:38;18.30;99.90
60234;DHT22;49514;43.538;-5.708;2022-07-23T03:50:05;18.30;99.90
60234;DHT22;49514;43.538;-5.708;2022-07-23T03:52:32;18.30;99.90
60234;DHT22;49514;43.538;-5.708;2022-07-23T03:54:59;18.20;99.90
60234;DHT22;49514;43.538;-5.708;2022-07-23T03:57:25;18.20;99.90
60234;DHT22;49514;43.538;-5.708;2022-07-23T03:59:53;18.20;99.90
60234;DHT22;49514;43.538;-5.708;2022-07-23T04:02:19;18.20;99.90
60234;DHT22;49514;43.538;-5.708;2022-07-23T04:04:46;18.20;99.90
60234;DHT22;49514;43.538;-5.708;2022-07-23T04:07:12;18.20;99.90
60234;DHT22;49514;43.538;-5.708;2022-07-23T04:09:39;18.30;99.90
60234;DHT22;49514;43.538;-5.708;2022-07-23T04:12:08;18.20;99.90
60234;DHT22;49514;43.538;-5.708;2022-07-23T04:14:35;18.20;99.90
60234;DHT22;49514;43.538;-5.708;2022-07-23T04:17:01;18.20;99.90
60234;DHT22;49514;43.538;-5.708;2022-07-23T04:19:28;18.10;99.90
60234;DHT22;49514;43.538;-5.708;2022-07-23T04:22:03;18.10;99.90
60234;DHT22;49514;43.538;-5.708;2022-07-23T04:24:31;18.10;99.90
60234;DHT22;49514;43.538;-5.708;2022-07-23T04:26:58;18.10;99.90
60234;DHT22;49514;43.538;-5.708;2022-07-23T04:29:25;18.10;99.90
60234;DHT22;49514;43.538;-5.708;2022-07-23T04:31:51;18.00;99.90
60234;DHT22;49514;43.538;-5.708;2022-07-23T04:34:18;18.00;99.90
60234;DHT22;49514;43.538;-5.708;2022-07-23T04:36:45;18.00;99.90
60234;DHT22;49514;43.538;-5.708;2022-07-23T04:39:12;18.00;99.90
60234;DHT22;49514;43.538;-5.708;2022-07-23T04:41:39;18.00;99.90
60234;DHT22;49514;43.538;-5.708;2022-07-23T04:44:05;18.00;99.90
60234;DHT22;49514;43.538;-5.708;2022-07-23T04:46:32;18.00;99.90
60234;DHT22;49514;43.538;-5.708;2022-07-23T04:48:58;18.00;99.90
60234;DHT22;49514;43.538;-5.708;2022-07-23T04:51:26;18.00;99.90
60234;DHT22;49514;43.538;-5.708;2022-07-23T04:53:53;17.90;99.90
60234;DHT22;49514;43.538;-5.708;2022-07-23T04:56:20;17.90;99.90
60234;DHT22;49514;43.538;-5.708;2022-07-23T04:58:46;17.90;99.90
60234;DHT22;49514;43.538;-5.708;2022-07-23T05:01:13;17.90;99.90
60234;DHT22;49514;43.538;-5.708;2022-07-23T05:03:39;17.80;99.90
60234;DHT22;49514;43.538;-5.708;2022-07-23T05:06:06;17.80;99.90
60234;DHT22;49514;43.538;-5.708;2022-07-23T05:08:32;17.80;99.90
60234;DHT22;49514;43.538;-5.708;2022-07-23T05:10:59;17.90;99.90
60234;DHT22;49514;43.538;-5.708;2022-07-23T05:13:27;17.90;99.90
60234;DHT22;49514;43.538;-5.708;2022-07-23T05:15:54;17.90;99.90
60234;DHT22;49514;43.538;-5.708;2022-07-23T05:18:21;18.00;99.90
60234;DHT22;49514;43.538;-5.708;2022-07-23T05:20:48;18.00;99.90
60234;DHT22;49514;43.538;-5.708;2022-07-23T05:23:18;18.10;99.90
60234;DHT22;49514;43.538;-5.708;2022-07-23T05:25:44;18.10;99.90
60234;DHT22;49514;43.538;-5.708;2022-07-23T05:28:11;18.10;99.90
60234;DHT22;49514;43.538;-5.708;2022-07-23T05:30:38;18.20;99.90
60234;DHT22;49514;43.538;-5.708;2022-07-23T05:33:07;18.30;99.90
60234;DHT22;49514;43.538;-5.708;2022-07-23T05:35:34;18.30;99.90
60234;DHT22;49514;43.538;-5.708;2022-07-23T05:38:36;18.30;99.90
60234;DHT22;49514;43.538;-5.708;2022-07-23T05:41:03;18.40;99.90
60234;DHT22;49514;43.538;-5.708;2022-07-23T05:43:30;18.40;99.90
60234;DHT22;49514;43.538;-5.708;2022-07-23T05:46:00;18.40;99.90
60234;DHT22;49514;43.538;-5.708;2022-07-23T05:48:26;18.40;99.90
60234;DHT22;49514;43.538;-5.708;2022-07-23T05:51:06;18.40;99.90
60234;DHT22;49514;43.538;-5.708;2022-07-23T05:53:34;18.50;99.90
60234;DHT22;49514;43.538;-5.708;2022-07-23T05:56:15;18.50;99.90
60234;DHT22;49514;43.538;-5.708;2022-07-23T05:58:42;18.60;99.90
60234;DHT22;49514;43.538;-5.708;2022-07-23T06:01:09;18.60;99.90
60234;DHT22;49514;43.538;-5.708;2022-07-23T06:03:44;18.70;99.90
60234;DHT22;49514;43.538;-5.708;2022-07-23T06:06:11;18.80;99.90
60234;DHT22;49514;43.538;-5.708;2022-07-23T06:08:37;18.90;99.90
60234;DHT22;49514;43.538;-5.708;2022-07-23T06:11:04;19.00;99.90
60234;DHT22;49514;43.538;-5.708;2022-07-23T06:13:31;19.00;99.90
60234;DHT22;49514;43.538;-5.708;2022-07-23T06:15:57;19.10;99.90
60234;DHT22;49514;43.538;-5.708;2022-07-23T06:18:24;19.10;99.90
60234;DHT22;49514;43.538;-5.708;2022-07-23T06:20:50;19.10;99.90
60234;DHT22;49514;43.538;-5.708;2022-07-23T06:23:17;19.10;99.90
60234;DHT22;49514;43.538;-5.708;2022-07-23T06:25:43;19.10;99.90
60234;DHT22;49514;43.538;-5.708;2022-07-23T06:28:10;19.10;99.90
60234;DHT22;49514;43.538;-5.708;2022-07-23T06:30:36;19.20;99.90
60234;DHT22;49514;43.538;-5.708;2022-07-23T06:33:03;19.30;99.90
60234;DHT22;49514;43.538;-5.708;2022-07-23T06:35:29;19.40;99.90
60234;DHT22;49514;43.538;-5.708;2022-07-23T06:37:56;19.50;99.90
60234;DHT22;49514;43.538;-5.708;2022-07-23T06:40:23;19.60;99.90
60234;DHT22;49514;43.538;-5.708;2022-07-23T06:42:49;19.70;99.90
60234;DHT22;49514;43.538;-5.708;2022-07-23T06:45:21;19.70;99.90
60234;DHT22;49514;43.538;-5.708;2022-07-23T06:47:48;19.60;99.90
60234;DHT22;49514;43.538;-5.708;2022-07-23T06:50:14;19.60;99.90
60234;DHT22;49514;43.538;-5.708;2022-07-23T06:52:42;19.60;99.90
60234;DHT22;49514;43.538;-5.708;2022-07-23T06:55:08;19.60;99.90
60234;DHT22;49514;43.538;-5.708;2022-07-23T06:57:35;19.50;99.90
60234;DHT22;49514;43.538;-5.708;2022-07-23T07:00:02;19.50;99.90
60234;DHT22;49514;43.538;-5.708;2022-07-23T07:02:28;19.50;99.90
60234;DHT22;49514;43.538;-5.708;2022-07-23T07:04:55;19.50;99.90
60234;DHT22;49514;43.538;-5.708;2022-07-23T07:07:22;19.50;99.90
60234;DHT22;49514;43.538;-5.708;2022-07-23T07:09:48;19.50;99.90
60234;DHT22;49514;43.538;-5.708;2022-07-23T07:12:15;19.60;99.90
60234;DHT22;49514;43.538;-5.708;2022-07-23T07:14:41;19.60;99.90
60234;DHT22;49514;43.538;-5.708;2022-07-23T07:17:08;19.60;99.90
60234;DHT22;49514;43.538;-5.708;2022-07-23T07:19:36;19.60;99.90
60234;DHT22;49514;43.538;-5.708;2022-07-23T07:22:03;19.70;99.90
60234;DHT22;49514;43.538;-5.708;2022-07-23T07:24:29;19.70;99.90
60234;DHT22;49514;43.538;-5.708;2022-07-23T07:26:56;19.70;99.90
60234;DHT22;49514;43.538;-5.708;2022-07-23T07:29:22;19.70;99.90
60234;DHT22;49514;43.538;-5.708;2022-07-23T07:31:48;19.70;99.90
60234;DHT22;49514;43.538;-5.708;2022-07-23T07:34:15;19.80;99.90
60234;DHT22;49514;43.538;-5.708;2022-07-23T07:36:41;19.80;99.90
60234;DHT22;49514;43.538;-5.708;2022-07-23T07:39:09;19.80;99.90
60234;DHT22;49514;43.538;-5.708;2022-07-23T07:41:36;19.80;99.90
60234;DHT22;49514;43.538;-5.708;2022-07-23T07:44:03;19.90;99.90
60234;DHT22;49514;43.538;-5.708;2022-07-23T07:46:29;20.00;99.90
60234;DHT22;49514;43.538;-5.708;2022-07-23T07:48:56;20.00;99.90
60234;DHT22;49514;43.538;-5.708;2022-07-23T07:51:23;20.00;99.90
60234;DHT22;49514;43.538;-5.708;2022-07-23T07:53:49;20.10;99.90
60234;DHT22;49514;43.538;-5.708;2022-07-23T07:56:16;20.10;99.90
60234;DHT22;49514;43.538;-5.708;2022-07-23T07:58:42;20.20;99.90
60234;DHT22;49514;43.538;-5.708;2022-07-23T08:01:09;20.30;99.90
60234;DHT22;49514;43.538;-5.708;2022-07-23T08:03:35;20.40;99.90
60234;DHT22;49514;43.538;-5.708;2022-07-23T08:06:02;20.50;99.90
60234;DHT22;49514;43.538;-5.708;2022-07-23T08:08:28;20.60;99.90
60234;DHT22;49514;43.538;-5.708;2022-07-23T08:10:55;20.70;99.90
60234;DHT22;49514;43.538;-5.708;2022-07-23T08:13:21;20.80;99.90
60234;DHT22;49514;43.538;-5.708;2022-07-23T08:15:48;20.90;99.90
60234;DHT22;49514;43.538;-5.708;2022-07-23T08:18:14;21.00;99.90
60234;DHT22;49514;43.538;-5.708;2022-07-23T08:20:41;21.10;99.90
60234;DHT22;49514;43.538;-5.708;2022-07-23T08:23:07;21.20;99.90
60234;DHT22;49514;43.538;-5.708;2022-07-23T08:25:35;21.20;99.90
60234;DHT22;49514;43.538;-5.708;2022-07-23T08:28:03;21.20;99.90
60234;DHT22;49514;43.538;-5.708;2022-07-23T08:30:30;21.20;99.90
60234;DHT22;49514;43.538;-5.708;2022-07-23T08:32:58;21.20;99.90
60234;DHT22;49514;43.538;-5.708;2022-07-23T08:35:32;21.20;99.90
60234;DHT22;49514;43.538;-5.708;2022-07-23T08:37:59;21.20;99.90
60234;DHT22;49514;43.538;-5.708;2022-07-23T08:40:27;21.30;99.90
60234;DHT22;49514;43.538;-5.708;2022-07-23T08:42:54;21.20;99.90
60234;DHT22;49514;43.538;-5.708;2022-07-23T08:45:21;21.30;99.90
60234;DHT22;49514;43.538;-5.708;2022-07-23T08:47:52;21.40;99.90
60234;DHT22;49514;43.538;-5.708;2022-07-23T08:50:19;21.40;99.90
60234;DHT22;49514;43.538;-5.708;2022-07-23T08:52:46;21.30;99.90
60234;DHT22;49514;43.538;-5.708;2022-07-23T08:55:15;21.30;99.90
60234;DHT22;49514;43.538;-5.708;2022-07-23T08:57:42;21.30;99.90
60234;DHT22;49514;43.538;-5.708;2022-07-23T09:00:09;21.30;99.90
60234;DHT22;49514;43.538;-5.708;2022-07-23T09:02:40;21.30;99.90
60234;DHT22;49514;43.538;-5.708;2022-07-23T09:05:07;21.30;99.90
60234;DHT22;49514;43.538;-5.708;2022-07-23T09:07:34;21.40;99.90
60234;DHT22;49514;43.538;-5.708;2022-07-23T09:10:10;21.50;99.90
60234;DHT22;49514;43.538;-5.708;2022-07-23T09:12:37;21.60;99.90
60234;DHT22;49514;43.538;-5.708;2022-07-23T09:15:04;21.70;99.90
60234;DHT22;49514;43.538;-5.708;2022-07-23T09:17:36;21.70;99.90
60234;DHT22;49514;43.538;-5.708;2022-07-23T09:20:07;21.70;99.90
60234;DHT22;49514;43.538;-5.708;2022-07-23T09:22:34;21.50;99.90
60234;DHT22;49514;43.538;-5.708;2022-07-23T09:30:15;21.30;99.90
60234;DHT22;49514;43.538;-5.708;2022-07-23T09:32:42;21.40;99.90
60234;DHT22;49514;43.538;-5.708;2022-07-23T09:35:09;21.30;99.90
60234;DHT22;49514;43.538;-5.708;2022-07-23T09:37:35;21.40;99.90
60234;DHT22;49514;43.538;-5.708;2022-07-23T09:40:06;21.40;99.90
60234;DHT22;49514;43.538;-5.708;2022-07-23T09:42:33;21.40;99.90
60234;DHT22;49514;43.538;-5.708;2022-07-23T09:44:59;21.40;99.90
60234;DHT22;49514;43.538;-5.708;2022-07-23T09:47:29;21.50;99.90
60234;DHT22;49514;43.538;-5.708;2022-07-23T09:50:03;21.40;99.90
60234;DHT22;49514;43.538;-5.708;2022-07-23T09:52:56;21.40;99.90
60234;DHT22;49514;43.538;-5.708;2022-07-23T09:55:21;21.40;99.90
60234;DHT22;49514;43.538;-5.708;2022-07-23T09:57:59;21.40;99.90
60234;DHT22;49514;43.538;-5.708;2022-07-23T10:00:26;21.40;99.90
60234;DHT22;49514;43.538;-5.708;2022-07-23T10:02:53;21.40;99.90
60234;DHT22;49514;43.538;-5.708;2022-07-23T10:05:29;21.40;99.90
60234;DHT22;49514;43.538;-5.708;2022-07-23T10:07:59;21.40;99.90
60234;DHT22;49514;43.538;-5.708;2022-07-23T10:10:53;21.40;99.90
60234;DHT22;49514;43.538;-5.708;2022-07-23T10:13:32;21.40;99.90
60234;DHT22;49514;43.538;-5.708;2022-07-23T10:16:01;21.40;99.90
60234;DHT22;49514;43.538;-5.708;2022-07-23T10:18:28;21.40;99.90
60234;DHT22;49514;43.538;-5.708;2022-07-23T10:20:55;21.40;99.90
60234;DHT22;49514;43.538;-5.708;2022-07-23T10:23:36;21.50;99.90
60234;DHT22;49514;43.538;-5.708;2022-07-23T10:28:40;21.50;99.90
60234;DHT22;49514;43.538;-5.708;2022-07-23T10:31:32;21.50;99.90
60234;DHT22;49514;43.538;-5.708;2022-07-23T10:33:57;21.50;99.90
60234;DHT22;49514;43.538;-5.708;2022-07-23T10:36:36;21.50;99.90
60234;DHT22;49514;43.538;-5.708;2022-07-23T10:44:14;21.50;99.90
60234;DHT22;49514;43.538;-5.708;2022-07-23T10:46:54;21.50;99.90
60234;DHT22;49514;43.538;-5.708;2022-07-23T10:49:41;21.50;99.90
60234;DHT22;49514;43.538;-5.708;2022-07-23T10:54:40;21.60;99.90
60234;DHT22;49514;43.538;-5.708;2022-07-23T10:57:07;21.50;99.90
60234;DHT22;49514;43.538;-5.708;2022-07-23T11:02:23;21.60;99.90
60234;DHT22;49514;43.538;-5.708;2022-07-23T11:04:50;21.60;99.90
60234;DHT22;49514;43.538;-5.708;2022-07-23T11:07:18;21.60;99.90
60234;DHT22;49514;43.538;-5.708;2022-07-23T11:09:44;21.60;99.90
60234;DHT22;49514;43.538;-5.708;2022-07-23T11:17:24;21.70;99.90
60234;DHT22;49514;43.538;-5.708;2022-07-23T11:23:18;21.60;99.90
60234;DHT22;49514;43.538;-5.708;2022-07-23T11:27:54;21.60;99.90
60234;DHT22;49514;43.538;-5.708;2022-07-23T11:32:54;21.70;99.90
60234;DHT22;49514;43.538;-5.708;2022-07-23T11:35:41;21.80;99.90
60234;DHT22;49514;43.538;-5.708;2022-07-23T11:40:34;21.90;99.90
60234;DHT22;49514;43.538;-5.708;2022-07-23T11:43:02;22.00;99.90
60234;DHT22;49514;43.538;-5.708;2022-07-23T11:45:31;22.00;99.90
60234;DHT22;49514;43.538;-5.708;2022-07-23T11:47:58;22.00;99.90
60234;DHT22;49514;43.538;-5.708;2022-07-23T11:50:24;22.10;99.90
60234;DHT22;49514;43.538;-5.708;2022-07-23T11:52:54;22.10;99.90
60234;DHT22;49514;43.538;-5.708;2022-07-23T11:55:21;22.20;99.90
60234;DHT22;49514;43.538;-5.708;2022-07-23T11:57:50;22.30;99.90
60234;DHT22;49514;43.538;-5.708;2022-07-23T12:00:18;22.30;99.90
60234;DHT22;49514;43.538;-5.708;2022-07-23T12:02:52;22.40;99.90
60234;DHT22;49514;43.538;-5.708;2022-07-23T12:05:19;22.40;99.90
60234;DHT22;49514;43.538;-5.708;2022-07-23T12:07:46;22.40;99.90
60234;DHT22;49514;43.538;-5.708;2022-07-23T12:12:46;22.50;99.90
60234;DHT22;49514;43.538;-5.708;2022-07-23T12:15:15;22.50;99.90
60234;DHT22;49514;43.538;-5.708;2022-07-23T12:17:44;22.60;99.90
60234;DHT22;49514;43.538;-5.708;2022-07-23T12:20:16;22.70;99.90
60234;DHT22;49514;43.538;-5.708;2022-07-23T12:22:46;22.70;99.90
60234;DHT22;49514;43.538;-5.708;2022-07-23T12:25:14;22.80;99.90
60234;DHT22;49514;43.538;-5.708;2022-07-23T12:27:41;22.90;99.90
60234;DHT22;49514;43.538;-5.708;2022-07-23T12:30:22;23.00;99.90
60234;DHT22;49514;43.538;-5.708;2022-07-23T12:32:49;23.10;99.90
60234;DHT22;49514;43.538;-5.708;2022-07-23T12:35:16;23.30;99.90
60234;DHT22;49514;43.538;-5.708;2022-07-23T12:37:44;23.40;99.90
60234;DHT22;49514;43.538;-5.708;2022-07-23T12:40:28;23.50;99.90
60234;DHT22;49514;43.538;-5.708;2022-07-23T12:42:56;23.60;99.90
60234;DHT22;49514;43.538;-5.708;2022-07-23T12:45:22;23.70;99.90
60234;DHT22;49514;43.538;-5.708;2022-07-23T12:53:09;24.00;99.90
60234;DHT22;49514;43.538;-5.708;2022-07-23T12:55:36;24.20;99.90
60234;DHT22;49514;43.538;-5.708;2022-07-23T12:58:03;24.50;99.90
60234;DHT22;49514;43.538;-5.708;2022-07-23T13:00:31;25.10;99.90
60234;DHT22;49514;43.538;-5.708;2022-07-23T13:02:57;26.10;99.90
60234;DHT22;49514;43.538;-5.708;2022-07-23T13:05:25;27.50;99.90
60234;DHT22;49514;43.538;-5.708;2022-07-23T13:07:51;29.30;99.90
60234;DHT22;49514;43.538;-5.708;2022-07-23T13:10:18;30.70;99.90
60234;DHT22;49514;43.538;-5.708;2022-07-23T13:12:44;32.50;99.20
60234;DHT22;49514;43.538;-5.708;2022-07-23T13:15:10;33.90;96.30
60234;DHT22;49514;43.538;-5.708;2022-07-23T13:17:36;35.60;94.70
60234;DHT22;49514;43.538;-5.708;2022-07-23T13:20:03;37.10;90.10
60234;DHT22;49514;43.538;-5.708;2022-07-23T13:22:29;38.60;86.60
60234;DHT22;49514;43.538;-5.708;2022-07-23T13:24:56;39.50;83.20
60234;DHT22;49514;43.538;-5.708;2022-07-23T13:27:22;40.20;77.50
60234;DHT22;49514;43.538;-5.708;2022-07-23T13:29:49;41.50;76.80
60234;DHT22;49514;43.538;-5.708;2022-07-23T13:32:15;42.30;71.10
60234;DHT22;49514;43.538;-5.708;2022-07-23T13:34:42;43.30;68.20
60234;DHT22;49514;43.538;-5.708;2022-07-23T13:37:08;43.70;66.30
60234;DHT22;49514;43.538;-5.708;2022-07-23T13:39:35;44.60;63.70
60234;DHT22;49514;43.538;-5.708;2022-07-23T13:42:01;45.10;60.70
60234;DHT22;49514;43.538;-5.708;2022-07-23T13:44:28;44.90;61.60
60234;DHT22;49514;43.538;-5.708;2022-07-23T13:46:55;45.70;61.60
60234;DHT22;49514;43.538;-5.708;2022-07-23T13:49:21;46.10;60.80
60234;DHT22;49514;43.538;-5.708;2022-07-23T13:51:48;47.10;57.90
60234;DHT22;49514;43.538;-5.708;2022-07-23T13:54:15;47.30;58.00
60234;DHT22;49514;43.538;-5.708;2022-07-23T13:56:42;47.90;57.00
60234;DHT22;49514;43.538;-5.708;2022-07-23T13:59:09;48.20;56.00
60234;DHT22;49514;43.538;-5.708;2022-07-23T14:01:37;48.50;55.00
60234;DHT22;49514;43.538;-5.708;2022-07-23T14:04:04;48.50;55.80
60234;DHT22;49514;43.538;-5.708;2022-07-23T14:06:31;48.90;51.80
60234;DHT22;49514;43.538;-5.708;2022-07-23T14:08:57;48.80;53.60
60234;DHT22;49514;43.538;-5.708;2022-07-23T14:11:24;49.70;52.00
60234;DHT22;49514;43.538;-5.708;2022-07-23T14:13:51;50.10;52.00
60234;DHT22;49514;43.538;-5.708;2022-07-23T14:16:17;50.40;49.80
60234;DHT22;49514;43.538;-5.708;2022-07-23T14:18:44;50.30;50.20
60234;DHT22;49514;43.538;-5.708;2022-07-23T14:21:10;50.60;48.90
60234;DHT22;49514;43.538;-5.708;2022-07-23T14:23:37;50.60;47.10
60234;DHT22;49514;43.538;-5.708;2022-07-23T14:26:05;49.90;47.90
60234;DHT22;49514;43.538;-5.708;2022-07-23T14:28:33;50.20;48.80
60234;DHT22;49514;43.538;-5.708;2022-07-23T14:31:00;50.10;48.00
60234;DHT22;49514;43.538;-5.708;2022-07-23T14:33:27;50.60;48.10
60234;DHT22;49514;43.538;-5.708;2022-07-23T14:35:53;51.50;47.80
60234;DHT22;49514;43.538;-5.708;2022-07-23T14:38:20;50.70;45.90
60234;DHT22;49514;43.538;-5.708;2022-07-23T14:40:46;50.50;45.30
60234;DHT22;49514;43.538;-5.708;2022-07-23T14:43:13;50.30;47.50
60234;DHT22;49514;43.538;-5.708;2022-07-23T14:45:40;50.10;46.40
60234;DHT22;49514;43.538;-5.708;2022-07-23T14:50:34;51.70;45.70
60234;DHT22;49514;43.538;-5.708;2022-07-23T14:53:01;52.10;45.60
60234;DHT22;49514;43.538;-5.708;2022-07-23T14:55:28;52.70;44.90
60234;DHT22;49514;43.538;-5.708;2022-07-23T14:57:54;52.40;44.00
60234;DHT22;49514;43.538;-5.708;2022-07-23T15:02:48;52.40;43.50
60234;DHT22;49514;43.538;-5.708;2022-07-23T15:05:15;52.00;43.20
60234;DHT22;49514;43.538;-5.708;2022-07-23T15:07:42;51.70;44.00
60234;DHT22;49514;43.538;-5.708;2022-07-23T15:10:08;51.50;44.30
60234;DHT22;49514;43.538;-5.708;2022-07-23T15:12:35;51.60;42.60
60234;DHT22;49514;43.538;-5.708;2022-07-23T15:17:28;51.70;71.40
60234;DHT22;49514;43.538;-5.708;2022-07-23T15:19:55;52.60;43.30
60234;DHT22;49514;43.538;-5.708;2022-07-23T15:22:21;53.00;42.70
60234;DHT22;49514;43.538;-5.708;2022-07-23T15:24:48;53.30;42.80
60234;DHT22;49514;43.538;-5.708;2022-07-23T15:27:14;52.70;42.00
60234;DHT22;49514;43.538;-5.708;2022-07-23T15:29:42;53.20;42.00
60234;DHT22;49514;43.538;-5.708;2022-07-23T15:32:08;53.20;42.50
60234;DHT22;49514;43.538;-5.708;2022-07-23T15:34:35;53.20;42.00
60234;DHT22;49514;43.538;-5.708;2022-07-23T15:37:02;53.20;41.10
60234;DHT22;49514;43.538;-5.708;2022-07-23T15:39:31;52.80;41.90
60234;DHT22;49514;43.538;-5.708;2022-07-23T15:42:02;52.90;41.00
60234;DHT22;49514;43.538;-5.708;2022-07-23T15:46:57;52.50;40.50
60234;DHT22;49514;43.538;-5.708;2022-07-23T15:49:24;52.10;41.20
60234;DHT22;49514;43.538;-5.708;2022-07-23T15:51:50;52.20;41.40
60234;DHT22;49514;43.538;-5.708;2022-07-23T15:54:17;51.80;40.90
60234;DHT22;49514;43.538;-5.708;2022-07-23T15:56:43;52.10;41.30
60234;DHT22;49514;43.538;-5.708;2022-07-23T15:59:10;52.00;41.40
60234;DHT22;49514;43.538;-5.708;2022-07-23T16:01:36;52.00;41.30
60234;DHT22;49514;43.538;-5.708;2022-07-23T16:04:03;52.20;41.10
60234;DHT22;49514;43.538;-5.708;2022-07-23T16:06:30;51.80;41.40
60234;DHT22;49514;43.538;-5.708;2022-07-23T16:08:57;52.20;40.80
60234;DHT22;49514;43.538;-5.708;2022-07-23T16:11:24;51.50;41.40